sensor_id;sensor_type;location;lat;lon;timestamp;pressure;altitude;pressure_sealevel;temperature;humidity
77165;BME280;66140;50.280;18.660;2023-02-01T05:02:47;98610.25;;;0.02;100.00
77165;BME280;66140;50.280;18.660;2023-02-01T05:05:31;98604.31;;;-0.03;99.71
77165;BME280;66140;50.280;18.660;2023-02-01T05:07:56;98606.03;;;-0.02;99.81
77165;BME280;66140;50.280;18.660;2023-02-01T05:10:22;98612.84;;;0.02;99.46
77165;BME280;66140;50.280;18.660;2023-02-01T05:12:47;98611.06;;;0.04;100.00
77165;BME280;66140;50.280;18.660;2023-02-01T05:15:31;98615.47;;;0.02;99.53
77165;BME280;66140;50.280;18.660;2023-02-01T05:17:57;98580.25;;;-0.13;100.00
77165;BME280;66140;50.280;18.660;2023-02-01T05:20:23;98613.56;;;0.07;99.97
77165;BME280;66140;50.280;18.660;2023-02-01T05:22:49;98580.09;;;-0.07;99.80
77165;BME280;66140;50.280;18.660;2023-02-01T05:25:14;98585.06;;;0.01;99.19
77165;BME280;66140;50.280;18.660;2023-02-01T05:27:40;98593.38;;;0.14;99.26
77165;BME280;66140;50.280;18.660;2023-02-01T05:30:06;98590.91;;;0.09;98.93
77165;BME280;66140;50.280;18.660;2023-02-01T05:32:31;98546.63;;;-0.20;98.47
77165;BME280;66140;50.280;18.660;2023-02-01T05:34:57;98595.31;;;0.07;98.94
77165;BME280;66140;50.280;18.660;2023-02-01T05:37:23;98535.19;;;-0.16;98.21
77165;BME280;66140;50.280;18.660;2023-02-01T05:39:50;98572.84;;;0.03;97.73
77165;BME280;66140;50.280;18.660;2023-02-01T05:42:16;98583.88;;;0.13;97.99
77165;BME280;66140;50.280;18.660;2023-02-01T05:44:41;98590.47;;;0.24;97.54
77165;BME280;66140;50.280;18.660;2023-02-01T05:47:07;98578.53;;;0.16;97.49
77165;BME280;66140;50.280;18.660;2023-02-01T05:49:33;98559.63;;;0.09;97.04
77165;BME280;66140;50.280;18.660;2023-02-01T05:52:01;98532.13;;;-0.01;97.37
77165;BME280;66140;50.280;18.660;2023-02-01T05:54:27;98537.22;;;0.02;97.23
77165;BME280;66140;50.280;18.660;2023-02-01T05:56:56;98532.97;;;-0.01;97.44
77165;BME280;66140;50.280;18.660;2023-02-01T05:59:24;98582.47;;;0.29;97.86
77165;BME280;66140;50.280;18.660;2023-02-01T06:01:50;98569.66;;;0.21;97.23
77165;BME280;66140;50.280;18.660;2023-02-01T06:04:28;98582.44;;;0.30;96.76
77165;BME280;66140;50.280;18.660;2023-02-01T06:06:53;98575.91;;;0.17;96.13
77165;BME280;66140;50.280;18.660;2023-02-01T06:09:19;98573.38;;;0.14;96.56
77165;BME280;66140;50.280;18.660;2023-02-01T06:11:45;98546.94;;;-0.03;96.96
77165;BME280;66140;50.280;18.660;2023-02-01T06:14:21;98580.97;;;0.22;96.48
77165;BME280;66140;50.280;18.660;2023-02-01T06:16:47;98588.03;;;0.18;96.62
77165;BME280;66140;50.280;18.660;2023-02-01T06:19:13;98579.53;;;0.12;96.16
77165;BME280;66140;50.280;18.660;2023-02-01T06:21:38;98590.47;;;0.24;96.13
77165;BME280;66140;50.280;18.660;2023-02-01T06:24:04;98612.72;;;0.36;95.67
77165;BME280;66140;50.280;18.660;2023-02-01T06:26:29;98584.38;;;0.24;95.84
77165;BME280;66140;50.280;18.660;2023-02-01T06:28:55;98575.84;;;0.19;95.54
77165;BME280;66140;50.280;18.660;2023-02-01T06:31:22;98609.06;;;0.42;95.78
77165;BME280;66140;50.280;18.660;2023-02-01T06:33:48;98616.84;;;0.43;95.24
77165;BME280;66140;50.280;18.660;2023-02-01T06:36:14;98591.91;;;0.33;95.21
77165;BME280;66140;50.280;18.660;2023-02-01T06:38:41;98597.75;;;0.41;95.47
77165;BME280;66140;50.280;18.660;2023-02-01T06:41:09;98564.44;;;0.21;96.10
77165;BME280;66140;50.280;18.660;2023-02-01T06:43:36;98582.44;;;0.30;96.37
77165;BME280;66140;50.280;18.660;2023-02-01T06:46:12;98570.44;;;0.25;95.72
77165;BME280;66140;50.280;18.660;2023-02-01T06:48:56;98578.78;;;0.36;95.34
77165;BME280;66140;50.280;18.660;2023-02-01T06:51:42;98564.06;;;0.33;95.79
77165;BME280;66140;50.280;18.660;2023-02-01T06:54:20;98557.25;;;0.29;95.81
77165;BME280;66140;50.280;18.660;2023-02-01T06:56:45;98541.97;;;0.17;95.08
77165;BME280;66140;50.280;18.660;2023-02-01T06:59:11;98523.69;;;0.19;95.23
77165;BME280;66140;50.280;18.660;2023-02-01T07:01:37;98561.47;;;0.33;94.60
77165;BME280;66140;50.280;18.660;2023-02-01T07:04:02;98584.34;;;0.52;94.28
77165;BME280;66140;50.280;18.660;2023-02-01T07:06:31;98562.03;;;0.43;93.87
77165;BME280;66140;50.280;18.660;2023-02-01T07:09:00;98576.03;;;0.67;93.05
77165;BME280;66140;50.280;18.660;2023-02-01T07:11:47;98560.53;;;0.62;91.86
77165;BME280;66140;50.280;18.660;2023-02-01T07:14:54;98531.25;;;0.53;91.64
77165;BME280;66140;50.280;18.660;2023-02-01T07:17:19;98558.72;;;0.64;91.68
77165;BME280;66140;50.280;18.660;2023-02-01T07:19:53;98566.28;;;0.72;91.47
77165;BME280;66140;50.280;18.660;2023-02-01T07:22:27;98600.69;;;0.85;91.78
77165;BME280;66140;50.280;18.660;2023-02-01T07:25:01;98587.84;;;0.78;92.48
77165;BME280;66140;50.280;18.660;2023-02-01T07:30:40;98595.78;;;0.75;93.18
77165;BME280;66140;50.280;18.660;2023-02-01T07:33:08;98591.56;;;0.71;92.91
77165;BME280;66140;50.280;18.660;2023-02-01T07:35:33;98600.34;;;0.69;92.69
77165;BME280;66140;50.280;18.660;2023-02-01T07:38:10;98604.75;;;0.67;93.09
77165;BME280;66140;50.280;18.660;2023-02-01T07:41:00;98599.66;;;0.64;92.92
77165;BME280;66140;50.280;18.660;2023-02-01T07:43:28;98596.94;;;0.67;92.51
77165;BME280;66140;50.280;18.660;2023-02-01T07:45:54;98556.94;;;0.38;92.23
77165;BME280;66140;50.280;18.660;2023-02-01T07:48:24;98555.91;;;0.44;91.90
77165;BME280;66140;50.280;18.660;2023-02-01T07:54:40;98595.13;;;0.69;91.81
77165;BME280;66140;50.280;18.660;2023-02-01T07:57:11;98597.75;;;0.69;92.04
77165;BME280;66140;50.280;18.660;2023-02-01T07:59:47;98601.25;;;0.68;92.38
77165;BME280;66140;50.280;18.660;2023-02-01T08:02:34;98569.47;;;0.55;92.23
77165;BME280;66140;50.280;18.660;2023-02-01T08:05:00;98607.13;;;0.74;91.42
77165;BME280;66140;50.280;18.660;2023-02-01T08:07:28;98561.63;;;0.55;92.03
77165;BME280;66140;50.280;18.660;2023-02-01T08:09:53;98575.03;;;0.71;91.83
77165;BME280;66140;50.280;18.660;2023-02-01T08:12:26;98601.50;;;0.87;91.15
77165;BME280;66140;50.280;18.660;2023-02-01T08:14:57;98537.00;;;0.64;90.94
77165;BME280;66140;50.280;18.660;2023-02-01T08:17:23;98576.34;;;0.84;91.59
77165;BME280;66140;50.280;18.660;2023-02-01T08:19:51;98588.09;;;0.97;90.54
77165;BME280;66140;50.280;18.660;2023-02-01T08:22:45;98576.97;;;0.91;90.87
77165;BME280;66140;50.280;18.660;2023-02-01T08:25:43;98593.09;;;1.03;90.70
77165;BME280;66140;50.280;18.660;2023-02-01T08:28:09;98588.00;;;1.00;90.14
77165;BME280;66140;50.280;18.660;2023-02-01T08:30:41;98568.28;;;0.90;90.27
77165;BME280;66140;50.280;18.660;2023-02-01T08:33:10;98571.50;;;0.98;91.22
77165;BME280;66140;50.280;18.660;2023-02-01T08:35:44;98601.59;;;1.10;90.15
77165;BME280;66140;50.280;18.660;2023-02-01T08:38:22;98556.84;;;0.94;91.26
77165;BME280;66140;50.280;18.660;2023-02-01T08:40:50;98574.78;;;1.05;89.77
77165;BME280;66140;50.280;18.660;2023-02-01T08:43:16;98572.19;;;1.03;89.74
77165;BME280;66140;50.280;18.660;2023-02-01T08:45:42;98554.97;;;0.98;89.68
77165;BME280;66140;50.280;18.660;2023-02-01T08:48:10;98584.44;;;1.28;88.96
77165;BME280;66140;50.280;18.660;2023-02-01T08:50:40;98536.69;;;0.98;90.03
77165;BME280;66140;50.280;18.660;2023-02-01T08:53:29;98554.72;;;1.05;90.18
77165;BME280;66140;50.280;18.660;2023-02-01T08:58:58;98579.34;;;1.23;89.78
77165;BME280;66140;50.280;18.660;2023-02-01T09:01:23;98591.09;;;1.36;89.45
77165;BME280;66140;50.280;18.660;2023-02-01T09:03:49;98556.53;;;1.28;90.14
77165;BME280;66140;50.280;18.660;2023-02-01T09:06:19;98553.59;;;1.12;89.66
77165;BME280;66140;50.280;18.660;2023-02-01T09:09:15;98538.75;;;1.14;89.83
77165;BME280;66140;50.280;18.660;2023-02-01T09:14:37;98551.94;;;1.35;89.05
77165;BME280;66140;50.280;18.660;2023-02-01T09:17:05;98554.41;;;1.39;88.76
77165;BME280;66140;50.280;18.660;2023-02-01T09:19:32;98561.63;;;1.56;88.63
77165;BME280;66140;50.280;18.660;2023-02-01T09:21:57;98574.09;;;1.73;88.46
77165;BME280;66140;50.280;18.660;2023-02-01T09:24:25;98532.06;;;1.54;88.24
77165;BME280;66140;50.280;18.660;2023-02-01T09:26:51;98537.88;;;1.62;87.58
77165;BME280;66140;50.280;18.660;2023-02-01T09:29:35;98532.69;;;1.60;87.48
77165;BME280;66140;50.280;18.660;2023-02-01T09:32:02;98568.06;;;1.94;87.73
77165;BME280;66140;50.280;18.660;2023-02-01T09:34:28;98548.34;;;1.85;88.53
77165;BME280;66140;50.280;18.660;2023-02-01T09:36:54;98537.69;;;1.90;86.55
77165;BME280;66140;50.280;18.660;2023-02-01T09:39:19;98519.50;;;1.87;87.04
77165;BME280;66140;50.280;18.660;2023-02-01T09:47:18;98526.94;;;2.19;86.28
77165;BME280;66140;50.280;18.660;2023-02-01T09:49:55;98534.25;;;2.33;86.76
77165;BME280;66140;50.280;18.660;2023-02-01T09:52:27;98506.63;;;2.26;87.11
77165;BME280;66140;50.280;18.660;2023-02-01T09:55:09;98501.28;;;2.29;86.52
77165;BME280;66140;50.280;18.660;2023-02-01T09:57:56;98519.91;;;2.43;85.92
77165;BME280;66140;50.280;18.660;2023-02-01T10:00:24;98541.81;;;2.62;85.71
77165;BME280;66140;50.280;18.660;2023-02-01T10:02:51;98524.03;;;2.49;85.25
77165;BME280;66140;50.280;18.660;2023-02-01T10:14:01;98535.19;;;2.54;86.60
77165;BME280;66140;50.280;18.660;2023-02-01T10:16:39;98516.53;;;2.39;87.13
77165;BME280;66140;50.280;18.660;2023-02-01T10:19:51;98492.88;;;2.21;87.81
77165;BME280;66140;50.280;18.660;2023-02-01T10:22:40;98542.28;;;2.50;86.76
77165;BME280;66140;50.280;18.660;2023-02-01T10:25:22;98538.91;;;2.48;87.42
77165;BME280;66140;50.280;18.660;2023-02-01T10:27:48;98530.25;;;2.46;87.51
77165;BME280;66140;50.280;18.660;2023-02-01T10:30:22;98511.38;;;2.38;86.64
77165;BME280;66140;50.280;18.660;2023-02-01T10:33:25;98521.59;;;2.44;86.95
77165;BME280;66140;50.280;18.660;2023-02-01T10:35:54;98524.66;;;2.55;86.35
77165;BME280;66140;50.280;18.660;2023-02-01T10:38:28;98514.94;;;2.57;84.97
77165;BME280;66140;50.280;18.660;2023-02-01T10:40:59;98502.09;;;2.51;85.57
77165;BME280;66140;50.280;18.660;2023-02-01T10:43:26;98511.41;;;2.58;87.47
77165;BME280;66140;50.280;18.660;2023-02-01T10:45:51;98502.00;;;2.54;86.80
77165;BME280;66140;50.280;18.660;2023-02-01T10:48:17;98495.16;;;2.50;86.53
77165;BME280;66140;50.280;18.660;2023-02-01T10:50:53;98508.53;;;2.64;85.65
77165;BME280;66140;50.280;18.660;2023-02-01T10:55:53;98501.00;;;2.57;86.51
77165;BME280;66140;50.280;18.660;2023-02-01T10:58:30;98512.88;;;2.65;86.43
77165;BME280;66140;50.280;18.660;2023-02-01T11:08:50;98502.66;;;2.79;87.66
77165;BME280;66140;50.280;18.660;2023-02-01T11:11:16;98511.66;;;2.94;87.04
77165;BME280;66140;50.280;18.660;2023-02-01T11:13:42;98484.59;;;2.94;85.80
77165;BME280;66140;50.280;18.660;2023-02-01T11:16:12;98497.94;;;3.08;85.40
77165;BME280;66140;50.280;18.660;2023-02-01T11:18:39;98471.81;;;3.06;84.31
77165;BME280;66140;50.280;18.660;2023-02-01T11:21:06;98475.94;;;3.12;83.63
77165;BME280;66140;50.280;18.660;2023-02-01T11:23:33;98483.25;;;3.24;84.08
77165;BME280;66140;50.280;18.660;2023-02-01T11:26:07;98458.88;;;3.22;84.42
77165;BME280;66140;50.280;18.660;2023-02-01T11:28:38;98463.56;;;3.34;83.61
77165;BME280;66140;50.280;18.660;2023-02-01T11:31:08;98467.63;;;3.41;83.98
77165;BME280;66140;50.280;18.660;2023-02-01T11:33:37;98477.97;;;3.44;84.64
77165;BME280;66140;50.280;18.660;2023-02-01T11:36:13;98475.13;;;3.49;83.63
77165;BME280;66140;50.280;18.660;2023-02-01T11:38:46;98448.69;;;3.35;83.55
77165;BME280;66140;50.280;18.660;2023-02-01T11:41:34;98466.84;;;3.39;83.19
77165;BME280;66140;50.280;18.660;2023-02-01T11:44:01;98409.50;;;3.13;82.24
77165;BME280;66140;50.280;18.660;2023-02-01T11:46:40;98439.22;;;3.32;83.88
77165;BME280;66140;50.280;18.660;2023-02-01T11:49:23;98458.78;;;3.44;83.65
77165;BME280;66140;50.280;18.660;2023-02-01T11:52:12;98430.22;;;3.38;82.04
77165;BME280;66140;50.280;18.660;2023-02-01T11:57:43;98438.66;;;3.44;83.67
77165;BME280;66140;50.280;18.660;2023-02-01T12:00:29;98438.78;;;3.41;84.13
77165;BME280;66140;50.280;18.660;2023-02-01T12:03:43;98429.47;;;3.34;83.20
77165;BME280;66140;50.280;18.660;2023-02-01T12:06:55;98442.75;;;3.31;84.99
77165;BME280;66140;50.280;18.660;2023-02-01T12:34:47;98401.25;;;3.02;86.09
77165;BME280;66140;50.280;18.660;2023-02-01T13:17:35;98363.66;;;3.03;87.70
77165;BME280;66140;50.280;18.660;2023-02-01T13:58:56;98408.78;;;1.19;97.72
77165;BME280;66140;50.280;18.660;2023-02-01T14:27:21;98394.97;;;1.16;98.88
77165;BME280;66140;50.280;18.660;2023-02-01T15:14:22;98399.69;;;1.53;98.07
77165;BME280;66140;50.280;18.660;2023-02-01T15:42:51;98435.81;;;1.65;97.09
77165;BME280;66140;50.280;18.660;2023-02-01T15:45:50;98410.13;;;1.53;97.67
77165;BME280;66140;50.280;18.660;2023-02-01T15:48:25;98415.41;;;1.51;97.55
77165;BME280;66140;50.280;18.660;2023-02-01T15:57:39;98448.78;;;1.67;97.64
77165;BME280;66140;50.280;18.660;2023-02-01T16:00:45;98439.31;;;1.64;97.77
77165;BME280;66140;50.280;18.660;2023-02-01T16:03:38;98462.38;;;1.76;96.96
77165;BME280;66140;50.280;18.660;2023-02-01T16:06:33;98423.13;;;1.54;96.60
77165;BME280;66140;50.280;18.660;2023-02-01T16:09:22;98450.25;;;1.74;96.57
77165;BME280;66140;50.280;18.660;2023-02-01T16:12:01;98401.69;;;1.46;96.74
77165;BME280;66140;50.280;18.660;2023-02-01T16:14:33;98398.22;;;1.46;96.83
77165;BME280;66140;50.280;18.660;2023-02-01T16:17:11;98445.41;;;1.65;96.63
77165;BME280;66140;50.280;18.660;2023-02-01T16:19:37;98420.41;;;1.57;96.08
77165;BME280;66140;50.280;18.660;2023-02-01T16:22:02;98403.53;;;1.43;95.68
77165;BME280;66140;50.280;18.660;2023-02-01T16:24:31;98441.88;;;1.66;96.27
77165;BME280;66140;50.280;18.660;2023-02-01T16:26:57;98405.38;;;1.41;96.15
77165;BME280;66140;50.280;18.660;2023-02-01T16:29:23;98407.06;;;1.42;95.64
77165;BME280;66140;50.280;18.660;2023-02-01T16:31:49;98449.88;;;1.61;95.96
77165;BME280;66140;50.280;18.660;2023-02-01T16:34:16;98414.22;;;1.37;94.86
77165;BME280;66140;50.280;18.660;2023-02-01T16:36:51;98419.06;;;1.24;95.53
77165;BME280;66140;50.280;18.660;2023-02-01T16:39:18;98457.66;;;1.41;94.87
77165;BME280;66140;50.280;18.660;2023-02-01T16:41:44;98462.97;;;1.38;95.62
77165;BME280;66140;50.280;18.660;2023-02-01T16:44:20;98460.78;;;1.27;95.13
77165;BME280;66140;50.280;18.660;2023-02-01T16:46:47;98479.56;;;1.37;95.03
77165;BME280;66140;50.280;18.660;2023-02-01T16:49:19;98465.91;;;1.29;94.65
77165;BME280;66140;50.280;18.660;2023-02-01T16:51:47;98441.16;;;1.15;94.75
77165;BME280;66140;50.280;18.660;2023-02-01T16:54:13;98451.28;;;1.25;95.04
77165;BME280;66140;50.280;18.660;2023-02-01T16:56:40;98460.38;;;1.38;94.62
77165;BME280;66140;50.280;18.660;2023-02-01T16:59:07;98457.75;;;1.38;94.99
77165;BME280;66140;50.280;18.660;2023-02-01T17:01:34;98485.69;;;1.36;95.00
77165;BME280;66140;50.280;18.660;2023-02-01T17:04:02;98462.06;;;1.15;94.89
77165;BME280;66140;50.280;18.660;2023-02-01T17:06:28;98453.13;;;0.98;95.60
77165;BME280;66140;50.280;18.660;2023-02-01T17:08:56;98464.44;;;0.98;95.50
77165;BME280;66140;50.280;18.660;2023-02-01T17:11:26;98441.75;;;0.75;95.94
77165;BME280;66140;50.280;18.660;2023-02-01T17:13:52;98476.88;;;0.90;96.89
77165;BME280;66140;50.280;18.660;2023-02-01T17:18:45;98438.88;;;0.83;96.79
77165;BME280;66140;50.280;18.660;2023-02-01T17:21:11;98496.00;;;1.15;96.43
77165;BME280;66140;50.280;18.660;2023-02-01T17:23:37;98479.66;;;1.10;97.05
77165;BME280;66140;50.280;18.660;2023-02-01T17:26:24;98464.19;;;1.04;96.42
77165;BME280;66140;50.280;18.660;2023-02-01T17:28:50;98475.19;;;1.14;96.96
77165;BME280;66140;50.280;18.660;2023-02-01T17:31:28;98476.13;;;1.11;97.12
77165;BME280;66140;50.280;18.660;2023-02-01T17:33:54;98466.03;;;1.02;97.72
77165;BME280;66140;50.280;18.660;2023-02-01T17:36:22;98480.41;;;1.14;97.35
77165;BME280;66140;50.280;18.660;2023-02-01T17:38:50;98442.59;;;1.01;97.41
77165;BME280;66140;50.280;18.660;2023-02-01T17:41:19;98483.34;;;1.28;96.63
77165;BME280;66140;50.280;18.660;2023-02-01T17:43:55;98467.41;;;1.12;96.94
77165;BME280;66140;50.280;18.660;2023-02-01T17:49:05;98463.97;;;1.10;97.36
77165;BME280;66140;50.280;18.660;2023-02-01T17:51:33;98442.81;;;0.95;97.05
77165;BME280;66140;50.280;18.660;2023-02-01T17:53:59;98481.06;;;1.20;96.35
77165;BME280;66140;50.280;18.660;2023-02-01T17:56:25;98437.63;;;0.93;96.81
77165;BME280;66140;50.280;18.660;2023-02-01T17:58:53;98436.81;;;0.91;96.34
77165;BME280;66140;50.280;18.660;2023-02-01T18:01:22;98433.31;;;0.92;96.71
77165;BME280;66140;50.280;18.660;2023-02-01T18:03:49;98429.16;;;0.87;96.91
77165;BME280;66140;50.280;18.660;2023-02-01T18:06:21;98433.09;;;0.98;96.39
77165;BME280;66140;50.280;18.660;2023-02-01T18:08:47;98427.84;;;0.98;96.29
77165;BME280;66140;50.280;18.660;2023-02-01T18:11:15;98442.34;;;1.07;95.74
77165;BME280;66140;50.280;18.660;2023-02-01T18:13:44;98428.53;;;1.03;96.09
77165;BME280;66140;50.280;18.660;2023-02-01T18:16:28;98450.66;;;1.18;96.04
77165;BME280;66140;50.280;18.660;2023-02-01T18:18:53;98443.09;;;1.10;95.80
77165;BME280;66140;50.280;18.660;2023-02-01T18:21:33;98465.28;;;1.22;95.76
77165;BME280;66140;50.280;18.660;2023-02-01T18:24:00;98419.13;;;0.99;95.39
77165;BME280;66140;50.280;18.660;2023-02-01T18:26:26;98448.16;;;1.15;95.35
77165;BME280;66140;50.280;18.660;2023-02-01T18:28:52;98445.19;;;1.24;95.16
77165;BME280;66140;50.280;18.660;2023-02-01T18:31:25;98435.59;;;1.25;94.69
77165;BME280;66140;50.280;18.660;2023-02-01T18:33:52;98417.53;;;1.18;94.08
77165;BME280;66140;50.280;18.660;2023-02-01T18:36:18;98426.94;;;1.23;94.49
77165;BME280;66140;50.280;18.660;2023-02-01T18:38:50;98437.06;;;1.32;95.61
77165;BME280;66140;50.280;18.660;2023-02-01T18:48:07;98421.72;;;1.23;95.70
77165;BME280;66140;50.280;18.660;2023-02-01T18:50:35;98420.38;;;1.12;96.54
77165;BME280;66140;50.280;18.660;2023-02-01T18:53:04;98432.25;;;1.21;96.73
77165;BME280;66140;50.280;18.660;2023-02-01T18:55:59;98410.16;;;1.06;96.61
77165;BME280;66140;50.280;18.660;2023-02-01T19:02:20;98410.78;;;1.13;97.20
77165;BME280;66140;50.280;18.660;2023-02-01T19:04:46;98405.56;;;1.13;95.41
77165;BME280;66140;50.280;18.660;2023-02-01T19:07:15;98398.91;;;1.04;96.29
77165;BME280;66140;50.280;18.660;2023-02-01T19:09:41;98423.56;;;1.20;96.65
77165;BME280;66140;50.280;18.660;2023-02-01T19:12:09;98389.25;;;1.06;97.26
77165;BME280;66140;50.280;18.660;2023-02-01T19:14:40;98378.22;;;0.98;96.43
77165;BME280;66140;50.280;18.660;2023-02-01T19:17:09;98384.03;;;1.06;96.51
77165;BME280;66140;50.280;18.660;2023-02-01T19:19:38;98395.84;;;1.16;96.49
77165;BME280;66140;50.280;18.660;2023-02-01T19:22:19;98372.56;;;1.10;96.24
77165;BME280;66140;50.280;18.660;2023-02-01T19:24:44;98351.44;;;0.93;96.31
77165;BME280;66140;50.280;18.660;2023-02-01T19:27:13;98347.94;;;0.94;96.08
77165;BME280;66140;50.280;18.660;2023-02-01T19:30:07;98347.06;;;0.94;96.16
77165;BME280;66140;50.280;18.660;2023-02-01T19:33:21;98375.06;;;1.13;96.04
77165;BME280;66140;50.280;18.660;2023-02-01T19:36:04;98356.19;;;1.05;96.07
77165;BME280;66140;50.280;18.660;2023-02-01T19:38:34;98352.13;;;0.98;96.28
77165;BME280;66140;50.280;18.660;2023-02-01T19:41:00;98325.66;;;0.84;96.20
77165;BME280;66140;50.280;18.660;2023-02-01T19:46:39;98301.38;;;0.82;96.48
77165;BME280;66140;50.280;18.660;2023-02-01T19:49:05;98326.06;;;0.97;96.50
77165;BME280;66140;50.280;18.660;2023-02-01T19:51:39;98299.25;;;0.92;96.42
77165;BME280;66140;50.280;18.660;2023-02-01T19:54:07;98307.78;;;0.97;96.32
77165;BME280;66140;50.280;18.660;2023-02-01T19:56:34;98314.53;;;1.02;96.48
77165;BME280;66140;50.280;18.660;2023-02-01T19:59:05;98290.72;;;0.88;96.76
77165;BME280;66140;50.280;18.660;2023-02-01T20:01:32;98317.69;;;1.10;96.50
77165;BME280;66140;50.280;18.660;2023-02-01T20:03:58;98296.38;;;0.99;96.54
77165;BME280;66140;50.280;18.660;2023-02-01T20:06:30;98315.09;;;1.10;96.73
77165;BME280;66140;50.280;18.660;2023-02-01T20:08:57;98311.63;;;1.10;96.86
77165;BME280;66140;50.280;18.660;2023-02-01T20:11:24;98302.06;;;1.09;96.77
77165;BME280;66140;50.280;18.660;2023-02-01T20:13:54;98266.91;;;0.96;96.73
77165;BME280;66140;50.280;18.660;2023-02-01T20:16:21;98301.31;;;1.07;96.88
77165;BME280;66140;50.280;18.660;2023-02-01T20:18:46;98317.81;;;1.07;96.74
77165;BME280;66140;50.280;18.660;2023-02-01T20:21:12;98304.31;;;0.96;97.14
77165;BME280;66140;50.280;18.660;2023-02-01T20:23:37;98335.06;;;1.11;97.26
77165;BME280;66140;50.280;18.660;2023-02-01T20:26:04;98336.78;;;1.12;96.45
77165;BME280;66140;50.280;18.660;2023-02-01T20:28:31;98326.44;;;1.09;96.84
